Kilburn, United Kingdom
Current Conditions -  °F | °C
As of 11:20 PM on Thursday 27 Nov 2014 (Local Time) from EGNX Reporting Station
Overcast Overcast  
Wind Chill: 42°   Ceiling: 300
Heat Index: 45°   Visibility: 6mi
Dew Point: 45°   Wind: 5mph
Humidity: 100%   Direction: 50°NE
Pressure: 29.62"   Gusts: NA
Location:  53.01°N, 1.44°W
Report Text: EGNX 272320Z 05004KT 9999 OVC003 07/07 Q1003
Loading
Personal Weather Stations






























Interactive Weather Map New forecast layout! Learn more

10-Day Weather Forecast

Advertisements
Track Severe Weather on mobile